Time;durP1;ratioP1;P1;durP2;ratioP2;P2;SDS_P1;SDS_P2;PMS_P1;PMS_P2;Temp;Humidity;BMP_temperature;BMP_pressure;BME280_temperature;BME280_humidity;BME280_pressure;Samples;Min_cycle;Max_cycle;Signal;HPM_P1;HPM_P2
2021/10/13 04:32:51;;;;;;;21.07;12.50;;;6.90;99.90;;;;;;4999039;23;20543;-74
2021/10/13 04:35:16;;;;;;;21.07;12.20;;;6.90;99.90;;;;;;4957859;28;20938;-76
2021/10/13 04:37:42;;;;;;;23.87;13.07;;;6.90;99.90;;;;;;4980669;28;20196;-77
2021/10/13 04:40:08;;;;;;;20.27;13.03;;;6.90;99.90;;;;;;4972516;28;20568;-76
2021/10/13 04:42:33;;;;;;;28.70;14.50;;;6.90;99.90;;;;;;4970133;28;20286;-77
2021/10/13 04:45:00;;;;;;;25.30;14.90;;;6.90;99.90;;;;;;4973452;28;20511;-76
2021/10/13 04:47:26;;;;;;;22.80;13.10;;;6.90;99.90;;;;;;4976097;28;20176;-77
2021/10/13 04:49:52;;;;;;;27.77;12.80;;;6.90;99.90;;;;;;4974937;28;20974;-78
2021/10/13 04:52:17;;;;;;;22.40;13.50;;;6.80;99.90;;;;;;4981107;28;20277;-77
2021/10/13 04:54:43;;;;;;;20.13;12.80;;;6.80;99.90;;;;;;4974714;28;21055;-78
2021/10/13 04:57:09;;;;;;;20.10;12.63;;;6.80;99.90;;;;;;4977094;28;20412;-78
2021/10/13 04:59:35;;;;;;;21.20;12.63;;;6.80;99.90;;;;;;4974624;28;21016;-79
2021/10/13 05:02:01;;;;;;;23.30;13.80;;;6.80;99.90;;;;;;4974283;28;20496;-78
2021/10/13 05:04:26;;;;;;;26.93;13.57;;;6.80;99.90;;;;;;4974626;28;20214;-79
2021/10/13 05:06:52;;;;;;;25.43;14.40;;;6.80;99.90;;;;;;4972091;28;20220;-78
2021/10/13 05:09:17;;;;;;;25.83;12.53;;;6.80;99.90;;;;;;4976254;28;20178;-78
2021/10/13 05:11:44;;;;;;;23.53;13.60;;;6.80;99.90;;;;;;4971717;28;20208;-77
2021/10/13 05:14:10;;;;;;;23.03;12.33;;;6.70;99.90;;;;;;4976994;28;20535;-78
2021/10/13 05:16:36;;;;;;;23.20;13.83;;;6.80;99.90;;;;;;4974105;28;20444;-77
2021/10/13 05:19:01;;;;;;;19.07;12.80;;;6.70;99.90;;;;;;4975504;28;20426;-76
2021/10/13 05:21:27;;;;;;;22.00;14.83;;;6.70;99.90;;;;;;4970912;28;20472;-76
2021/10/13 05:23:53;;;;;;;27.10;14.37;;;6.70;99.90;;;;;;4974101;28;20240;-76
2021/10/13 05:26:19;;;;;;;24.27;14.37;;;6.70;99.90;;;;;;4973395;28;20208;-76
2021/10/13 05:28:45;;;;;;;32.47;15.03;;;6.70;99.90;;;;;;4975274;28;20601;-76
2021/10/13 05:31:10;;;;;;;23.43;14.17;;;6.80;99.90;;;;;;4972076;28;20464;-75
2021/10/13 05:33:36;;;;;;;23.37;13.30;;;6.70;99.90;;;;;;4971728;28;20183;-75
2021/10/13 05:36:03;;;;;;;26.90;14.50;;;6.70;99.90;;;;;;4971419;28;20214;-77
2021/10/13 05:38:29;;;;;;;30.87;14.77;;;6.70;99.90;;;;;;4975355;28;20437;-77
2021/10/13 05:40:54;;;;;;;25.80;13.80;;;6.70;99.90;;;;;;4975291;28;20202;-77
2021/10/13 05:43:20;;;;;;;23.23;14.33;;;6.70;99.90;;;;;;4971506;28;20197;-78
2021/10/13 05:45:46;;;;;;;19.43;12.47;;;6.70;99.90;;;;;;4977077;28;20219;-77
2021/10/13 05:48:12;;;;;;;27.07;12.90;;;6.70;99.90;;;;;;4977173;28;20245;-79
2021/10/13 05:50:37;;;;;;;24.43;13.87;;;6.70;99.90;;;;;;4976762;28;20443;-78
2021/10/13 05:53:03;;;;;;;27.10;13.30;;;6.70;99.90;;;;;;4974201;28;20193;-78
2021/10/13 05:55:28;;;;;;;20.80;13.43;;;6.80;99.90;;;;;;4978436;28;20192;-80
2021/10/13 05:57:54;;;;;;;18.90;12.03;;;6.80;99.90;;;;;;4976328;28;20277;-78
2021/10/13 06:00:22;;;;;;;19.30;12.17;;;6.80;99.90;;;;;;4978149;28;20264;-78
2021/10/13 06:02:47;;;;;;;19.53;13.00;;;6.80;99.90;;;;;;4975256;28;20203;-78
2021/10/13 06:05:13;;;;;;;24.87;12.27;;;6.80;99.90;;;;;;4969869;28;20454;-78
2021/10/13 06:07:38;;;;;;;27.40;13.80;;;6.80;99.90;;;;;;4971989;28;20239;-78
2021/10/13 06:10:04;;;;;;;25.53;12.80;;;6.90;99.90;;;;;;4975050;28;20237;-78
2021/10/13 06:12:30;;;;;;;25.57;13.63;;;7.00;99.90;;;;;;4976409;28;20581;-79
2021/10/13 06:14:55;;;;;;;16.33;12.00;;;7.00;99.90;;;;;;4972474;28;20193;-78
2021/10/13 06:17:21;;;;;;;23.30;12.03;;;7.10;99.90;;;;;;4977462;28;20185;-79
2021/10/13 06:19:47;;;;;;;24.60;12.30;;;7.00;99.90;;;;;;4974563;28;20198;-78
2021/10/13 06:22:13;;;;;;;20.60;12.57;;;7.10;99.90;;;;;;4973962;28;20289;-79
2021/10/13 06:24:39;;;;;;;18.60;11.77;;;7.10;99.90;;;;;;4973244;28;20449;-78
2021/10/13 06:27:05;;;;;;;18.67;11.87;;;7.20;99.90;;;;;;4974181;28;20214;-79
2021/10/13 06:29:32;;;;;;;18.30;11.80;;;7.20;99.90;;;;;;4973221;28;20533;-79
2021/10/13 06:31:57;;;;;;;20.40;12.33;;;7.30;99.90;;;;;;4973303;28;20312;-79
2021/10/13 06:34:23;;;;;;;24.17;11.80;;;7.30;99.90;;;;;;4970970;28;20527;-79
2021/10/13 06:36:48;;;;;;;22.30;12.70;;;7.40;99.90;;;;;;4970777;28;20286;-79
2021/10/13 06:39:14;;;;;;;26.60;13.87;;;7.40;99.90;;;;;;4975343;28;20646;-79
2021/10/13 06:41:39;;;;;;;23.47;12.23;;;7.50;99.90;;;;;;4972673;28;20220;-79
2021/10/13 06:44:05;;;;;;;17.33;11.80;;;7.50;99.90;;;;;;4976475;28;20702;-79
2021/10/13 06:46:30;;;;;;;19.73;12.47;;;7.50;99.90;;;;;;4972319;28;20217;-79
2021/10/13 06:48:56;;;;;;;20.10;11.37;;;7.60;99.90;;;;;;4977262;28;20254;-79
2021/10/13 06:51:21;;;;;;;22.60;11.73;;;7.60;99.90;;;;;;4974431;28;20293;-79
2021/10/13 06:53:47;;;;;;;20.90;12.00;;;7.70;99.90;;;;;;4976979;28;20178;-79
2021/10/13 06:56:13;;;;;;;17.03;10.93;;;7.90;99.90;;;;;;4974644;28;20198;-80
2021/10/13 06:58:39;;;;;;;14.50;10.87;;;8.40;99.90;;;;;;4974492;28;20318;-80
2021/10/13 07:01:05;;;;;;;14.73;9.20;;;8.80;99.90;;;;;;4974488;28;20535;-79
2021/10/13 07:03:30;;;;;;;15.97;9.30;;;9.30;99.90;;;;;;4976323;28;20179;-81
2021/10/13 07:05:56;;;;;;;14.50;9.27;;;9.60;99.90;;;;;;4972666;28;20215;-80
2021/10/13 07:08:21;;;;;;;15.07;8.93;;;9.50;99.90;;;;;;4975533;28;20191;-80
2021/10/13 07:10:47;;;;;;;14.00;9.00;;;9.50;99.90;;;;;;4977276;28;20290;-80
2021/10/13 07:13:12;;;;;;;14.53;9.40;;;9.40;99.90;;;;;;4975205;28;20195;-79
2021/10/13 07:15:38;;;;;;;11.33;7.93;;;9.30;99.90;;;;;;4977095;28;20264;-79
2021/10/13 07:18:03;;;;;;;14.67;9.33;;;9.20;99.90;;;;;;4972281;28;20293;-80
2021/10/13 07:20:29;;;;;;;16.53;9.30;;;9.20;99.90;;;;;;4974541;28;20766;-79
2021/10/13 07:22:55;;;;;;;17.50;10.17;;;9.10;99.90;;;;;;4975876;28;20193;-79
2021/10/13 07:25:24;;;;;;;20.77;11.37;;;9.00;99.90;;;;;;4983325;28;20181;-80
2021/10/13 07:27:50;;;;;;;19.00;9.90;;;9.00;99.90;;;;;;4980385;28;20175;-78
2021/10/13 07:30:18;;;;;;;20.33;11.43;;;9.10;99.90;;;;;;4979364;28;21166;-80
2021/10/13 07:32:44;;;;;;;18.90;10.80;;;9.20;99.90;;;;;;4975427;28;20465;-79
2021/10/13 07:35:10;;;;;;;21.30;11.40;;;9.60;99.90;;;;;;4979429;28;20417;-79
2021/10/13 07:37:36;;;;;;;25.83;11.33;;;9.80;99.90;;;;;;4977967;28;20420;-79
2021/10/13 07:40:04;;;;;;;16.60;10.90;;;9.80;99.90;;;;;;4976158;28;20246;-79
2021/10/13 07:42:31;;;;;;;16.80;11.30;;;9.90;99.90;;;;;;4981748;28;20209;-79
2021/10/13 07:44:56;;;;;;;17.23;11.20;;;10.10;99.90;;;;;;4975915;28;20494;-79
2021/10/13 07:47:22;;;;;;;20.77;10.80;;;10.10;99.90;;;;;;4977681;28;20533;-80
2021/10/13 07:49:47;;;;;;;16.80;9.77;;;10.10;99.90;;;;;;4972854;28;20192;-79
2021/10/13 07:52:12;;;;;;;20.70;11.60;;;10.00;99.90;;;;;;4972741;28;20260;-79
2021/10/13 07:54:38;;;;;;;14.90;10.60;;;10.10;99.90;;;;;;4974709;28;20191;-79
2021/10/13 07:57:03;;;;;;;18.27;10.97;;;10.10;99.90;;;;;;4977179;28;20190;-79
2021/10/13 07:59:29;;;;;;;16.53;10.97;;;10.10;99.90;;;;;;4975842;28;20254;-79
2021/10/13 08:01:54;;;;;;;16.23;11.13;;;10.10;99.90;;;;;;4975399;28;20225;-80
2021/10/13 08:04:21;;;;;;;17.90;10.67;;;10.20;99.90;;;;;;4976982;28;20196;-80
2021/10/13 08:06:47;;;;;;;14.30;10.00;;;10.10;99.90;;;;;;4974874;28;20695;-79
2021/10/13 08:09:13;;;;;;;15.70;10.73;;;10.20;99.90;;;;;;4983904;28;20903;-79
2021/10/13 08:11:39;;;;;;;15.27;10.00;;;10.50;99.90;;;;;;4973741;28;20469;-79
2021/10/13 08:14:05;;;;;;;17.77;10.20;;;10.80;99.90;;;;;;4978873;28;20220;-80
2021/10/13 08:16:31;;;;;;;17.70;10.90;;;11.00;99.90;;;;;;4975593;28;20453;-79
2021/10/13 08:18:56;;;;;;;19.60;12.20;;;11.20;99.90;;;;;;4979852;28;20428;-80
2021/10/13 08:21:22;;;;;;;17.00;10.80;;;11.50;99.90;;;;;;4977394;28;21049;-80
2021/10/13 08:23:47;;;;;;;23.93;12.20;;;11.90;99.90;;;;;;4978547;28;20219;-79
2021/10/13 08:26:13;;;;;;;24.20;11.80;;;12.20;99.90;;;;;;4975746;28;20227;-79
2021/10/13 08:28:39;;;;;;;25.67;14.23;;;12.40;99.90;;;;;;4969604;28;20188;-78
2021/10/13 08:31:04;;;;;;;24.00;12.13;;;12.20;99.90;;;;;;4961408;28;20212;-79
2021/10/13 08:33:31;;;;;;;24.37;13.80;;;12.10;99.90;;;;;;4973679;28;20187;-77
2021/10/13 08:35:57;;;;;;;18.67;12.73;;;12.10;99.90;;;;;;4976046;28;20545;-76
2021/10/13 08:38:22;;;;;;;20.40;11.33;;;12.00;99.90;;;;;;4976224;28;20411;-77
2021/10/13 08:40:48;;;;;;;19.60;11.97;;;11.60;99.90;;;;;;4975508;28;20752;-76
2021/10/13 08:43:13;;;;;;;28.60;15.37;;;11.50;99.90;;;;;;4975978;28;20324;-76
2021/10/13 08:45:39;;;;;;;27.80;15.47;;;11.30;99.90;;;;;;4976329;28;20274;-77
2021/10/13 08:48:07;;;;;;;25.73;15.83;;;11.30;99.90;;;;;;4975715;28;20413;-76
2021/10/13 08:50:35;;;;;;;26.60;14.27;;;11.30;99.90;;;;;;4975821;28;20228;-77
2021/10/13 08:53:12;;;;;;;32.47;14.40;;;11.40;99.90;;;;;;4975660;28;20415;-77
2021/10/13 08:55:40;;;;;;;21.07;14.47;;;11.70;99.90;;;;;;4975607;28;20444;-77
2021/10/13 08:58:21;;;;;;;25.53;12.97;;;11.60;99.90;;;;;;4975607;28;20451;-76
2021/10/13 09:01:08;;;;;;;26.60;13.17;;;11.60;99.90;;;;;;4975523;28;20403;-77
2021/10/13 09:03:34;;;;;;;25.50;14.73;;;11.50;99.90;;;;;;4975218;28;20482;-77
2021/10/13 09:06:15;;;;;;;23.23;12.57;;;11.40;99.90;;;;;;4973993;28;20525;-77
2021/10/13 09:09:03;;;;;;;19.70;10.43;;;11.20;99.90;;;;;;4975510;28;20442;-77
2021/10/13 09:11:33;;;;;;;19.00;10.10;;;11.00;99.90;;;;;;4975523;28;21006;-77
2021/10/13 09:14:09;;;;;;;18.50;8.43;;;10.90;99.90;;;;;;4975305;28;20556;-78
2021/10/13 09:16:47;;;;;;;10.80;6.10;;;10.80;99.90;;;;;;4975580;28;21002;-78
2021/10/13 09:19:12;;;;;;;10.90;6.97;;;10.70;99.90;;;;;;4975219;28;20439;-77
2021/10/13 09:21:47;;;;;;;7.50;5.80;;;10.70;99.90;;;;;;4975351;28;20795;-78
2021/10/13 09:24:12;;;;;;;4.90;3.80;;;10.70;99.90;;;;;;4975446;28;20183;-77
2021/10/13 09:26:38;;;;;;;9.00;4.30;;;10.70;99.90;;;;;;4975703;28;20433;-78
2021/10/13 09:29:06;;;;;;;8.63;6.03;;;10.80;99.90;;;;;;4975469;28;20923;-77
2021/10/13 09:31:32;;;;;;;11.83;6.80;;;10.80;99.90;;;;;;4972942;28;20772;-77
2021/10/13 09:34:02;;;;;;;15.00;8.20;;;10.80;99.90;;;;;;4974977;28;20511;-78
2021/10/13 09:36:39;;;;;;;15.97;10.07;;;10.90;99.90;;;;;;4974023;28;20595;-77
2021/10/13 09:39:10;;;;;;;17.80;10.83;;;11.10;99.90;;;;;;4975350;28;20783;-77
2021/10/13 09:41:55;;;;;;;23.20;12.90;;;11.20;99.90;;;;;;4975376;28;20442;-77
2021/10/13 09:44:21;;;;;;;19.13;10.90;;;11.30;99.90;;;;;;4975203;28;20931;-76
2021/10/13 09:46:48;;;;;;;17.13;10.67;;;11.60;99.90;;;;;;4974623;28;20467;-77
2021/10/13 09:49:25;;;;;;;17.27;7.60;;;12.20;99.90;;;;;;4974848;28;20649;-77
2021/10/13 09:51:51;;;;;;;9.03;6.67;;;12.60;99.90;;;;;;4974513;28;20439;-77
2021/10/13 09:54:16;;;;;;;9.47;6.17;;;13.00;99.90;;;;;;4974663;28;20801;-77
2021/10/13 09:56:42;;;;;;;12.07;7.47;;;13.40;99.90;;;;;;4974514;28;20176;-77
2021/10/13 09:59:09;;;;;;;13.30;8.70;;;13.60;99.90;;;;;;4974622;28;20283;-77
2021/10/13 10:01:36;;;;;;;12.20;9.73;;;13.70;99.90;;;;;;4973550;28;20200;-77
2021/10/13 10:04:04;;;;;;;12.97;9.03;;;13.50;99.90;;;;;;4974293;28;20415;-77
2021/10/13 10:06:29;;;;;;;17.83;9.73;;;13.40;99.90;;;;;;4974240;28;20454;-77
2021/10/13 10:08:56;;;;;;;8.97;6.30;;;13.20;99.90;;;;;;4974436;28;20493;-76
2021/10/13 10:11:34;;;;;;;15.30;7.60;;;13.10;99.90;;;;;;4974469;28;20187;-77
2021/10/13 10:14:02;;;;;;;13.43;8.70;;;13.40;99.90;;;;;;4974309;28;20400;-76
2021/10/13 10:16:37;;;;;;;13.37;8.83;;;13.90;99.90;;;;;;4974225;28;20452;-76
2021/10/13 10:19:24;;;;;;;9.73;6.50;;;14.70;99.90;;;;;;4974324;28;20414;-77
2021/10/13 10:21:58;;;;;;;17.53;8.47;;;15.40;99.90;;;;;;4973987;28;20439;-76
2021/10/13 10:24:32;;;;;;;7.70;5.87;;;15.70;99.90;;;;;;4974024;28;20419;-77
2021/10/13 10:27:23;;;;;;;7.43;5.70;;;15.70;99.90;;;;;;4974381;28;20458;-76
2021/10/13 10:29:59;;;;;;;10.33;5.83;;;15.70;99.90;;;;;;4974518;28;20439;-76
2021/10/13 10:32:24;;;;;;;9.50;5.70;;;15.80;99.90;;;;;;4973673;28;20451;-76
2021/10/13 10:35:05;;;;;;;10.90;7.13;;;15.40;99.90;;;;;;4971124;28;20418;-76
2021/10/13 10:37:38;;;;;;;14.30;8.40;;;14.90;99.90;;;;;;4973551;28;20183;-77
2021/10/13 10:40:26;;;;;;;14.30;10.20;;;14.40;99.90;;;;;;4972230;28;20483;-77
2021/10/13 10:43:17;;;;;;;11.43;9.23;;;13.60;99.90;;;;;;4965880;28;20450;-77
2021/10/13 10:45:59;;;;;;;16.03;10.93;;;13.10;99.90;;;;;;4973883;28;20541;-76
2021/10/13 10:48:41;;;;;;;10.23;9.17;;;12.60;99.90;;;;;;4971771;28;20504;-76
2021/10/13 10:51:07;;;;;;;9.37;6.77;;;12.60;99.90;;;;;;4973640;28;20442;-76
2021/10/13 10:53:37;;;;;;;11.80;8.33;;;12.60;99.90;;;;;;4973467;28;20412;-76
2021/10/13 10:56:27;;;;;;;9.00;7.63;;;12.70;99.90;;;;;;4972048;28;20794;-76
2021/10/13 10:58:58;;;;;;;14.37;7.80;;;12.70;99.90;;;;;;4973547;28;20450;-76
2021/10/13 11:01:24;;;;;;;8.50;6.40;;;13.00;99.90;;;;;;4973193;28;20459;-76
2021/10/13 11:03:50;;;;;;;9.10;6.20;;;13.20;99.90;;;;;;4973271;28;20424;-75
2021/10/13 11:06:26;;;;;;;12.37;6.50;;;13.40;99.90;;;;;;4972690;28;20470;-76
2021/10/13 11:09:22;;;;;;;9.23;5.80;;;13.40;99.90;;;;;;4973201;28;20179;-76
2021/10/13 11:11:49;;;;;;;8.60;4.83;;;13.40;99.90;;;;;;4968252;28;20875;-76
2021/10/13 11:14:27;;;;;;;6.00;4.10;;;13.80;99.90;;;;;;4973219;28;20412;-77
2021/10/13 11:16:55;;;;;;;10.17;6.37;;;14.00;99.90;;;;;;4973451;28;20419;-76
2021/10/13 11:19:43;;;;;;;10.13;5.30;;;14.00;99.90;;;;;;4973385;28;20415;-77
2021/10/13 11:22:10;;;;;;;11.50;4.60;;;13.80;99.90;;;;;;4975410;28;20443;-77
2021/10/13 11:24:38;;;;;;;12.47;5.30;;;13.60;99.90;;;;;;4973357;28;20422;-77
2021/10/13 11:27:04;;;;;;;9.40;4.93;;;13.30;99.90;;;;;;4972893;28;20521;-77
2021/10/13 11:29:33;;;;;;;8.17;4.40;;;12.90;99.90;;;;;;4973110;28;20455;-77
2021/10/13 11:32:14;;;;;;;8.67;4.33;;;12.50;99.90;;;;;;4972976;28;20483;-77
2021/10/13 11:34:42;;;;;;;7.03;4.00;;;12.30;99.90;;;;;;4973252;28;20426;-77
2021/10/13 11:37:08;;;;;;;4.13;3.83;;;12.00;99.90;;;;;;4971664;28;20862;-77
2021/10/13 11:39:37;;;;;;;4.70;3.87;;;12.00;99.90;;;;;;4973335;28;20506;-76
2021/10/13 11:42:04;;;;;;;4.53;2.70;;;12.00;99.90;;;;;;4972804;28;20445;-76
2021/10/13 11:44:30;;;;;;;4.47;2.30;;;12.10;99.90;;;;;;4972615;28;20505;-76
2021/10/13 11:46:58;;;;;;;2.03;1.83;;;12.20;99.90;;;;;;4972528;28;21065;-76
2021/10/13 11:49:24;;;;;;;3.30;1.97;;;12.50;99.90;;;;;;4972577;28;20478;-76
2021/10/13 11:52:12;;;;;;;2.73;2.53;;;13.10;99.90;;;;;;4972721;28;20943;-76
2021/10/13 11:54:39;;;;;;;2.10;1.90;;;13.40;99.90;;;;;;4972162;28;20539;-76
2021/10/13 11:57:05;;;;;;;2.97;1.53;;;13.70;99.90;;;;;;4972170;28;20502;-76
2021/10/13 11:59:31;;;;;;;3.10;1.53;;;13.60;99.90;;;;;;4972382;28;20802;-77
2021/10/13 12:02:09;;;;;;;5.90;1.67;;;13.80;99.90;;;;;;4972150;28;20440;-76
2021/10/13 12:04:35;;;;;;;1.63;0.87;;;14.20;99.90;;;;;;4972368;28;20184;-77
2021/10/13 12:07:00;;;;;;;1.80;1.70;;;14.30;99.90;;;;;;4971829;28;20873;-78
2021/10/13 12:09:26;;;;;;;3.27;1.00;;;14.50;99.90;;;;;;4969295;28;20649;-77
2021/10/13 12:11:51;;;;;;;1.43;1.30;;;14.30;99.90;;;;;;4970890;28;20566;-77
2021/10/13 12:14:17;;;;;;;3.10;1.40;;;14.30;99.90;;;;;;4973403;28;20190;-76
2021/10/13 12:16:42;;;;;;;3.43;1.23;;;14.10;99.90;;;;;;4971156;28;20520;-76
2021/10/13 12:19:16;;;;;;;1.03;1.03;;;14.20;99.90;;;;;;4972522;28;20187;-76
2021/10/13 12:21:58;;;;;;;1.37;1.10;;;14.10;99.90;;;;;;4971815;28;20242;-76
2021/10/13 12:24:24;;;;;;;4.00;1.10;;;13.70;99.90;;;;;;4972432;28;20422;-77
2021/10/13 12:26:49;;;;;;;2.00;1.10;;;13.60;99.90;;;;;;4972727;28;20471;-76
2021/10/13 12:29:16;;;;;;;1.47;1.37;;;13.30;99.90;;;;;;4972327;28;20226;-76
2021/10/13 12:31:42;;;;;;;1.63;0.90;;;13.30;99.90;;;;;;4972251;28;20213;-78
2021/10/13 12:34:15;;;;;;;2.73;1.57;;;13.00;99.90;;;;;;4972278;28;20851;-76
2021/10/13 12:36:44;;;;;;;1.20;1.10;;;12.60;99.90;;;;;;4972347;28;20775;-77
2021/10/13 12:39:14;;;;;;;1.97;1.00;;;12.50;99.90;;;;;;4971056;28;20454;-77
2021/10/13 12:41:43;;;;;;;2.70;1.10;;;12.40;99.90;;;;;;4972255;28;20439;-77
2021/10/13 12:44:17;;;;;;;2.40;1.30;;;12.20;99.90;;;;;;4971073;28;20424;-76
2021/10/13 12:46:57;;;;;;;1.97;1.13;;;12.10;99.90;;;;;;4971013;28;20540;-76
2021/10/13 12:49:24;;;;;;;2.60;1.17;;;11.90;99.90;;;;;;4972123;28;20978;-77
2021/10/13 12:51:59;;;;;;;1.67;1.00;;;11.90;99.90;;;;;;4971827;28;20438;-77
2021/10/13 12:54:29;;;;;;;1.73;1.60;;;12.20;99.90;;;;;;4971610;28;20423;-77
2021/10/13 12:56:55;;;;;;;1.77;1.27;;;12.30;99.90;;;;;;4972061;28;20431;-76
2021/10/13 12:59:22;;;;;;;2.50;1.80;;;12.50;99.90;;;;;;4968923;28;21242;-77
2021/10/13 13:01:47;;;;;;;3.00;1.33;;;12.70;99.90;;;;;;4970665;28;21030;-77
2021/10/13 13:04:13;;;;;;;1.30;1.20;;;12.90;99.90;;;;;;4972220;28;20514;-77
2021/10/13 13:06:40;;;;;;;1.60;1.30;;;12.90;99.90;;;;;;4974651;28;20215;-76
2021/10/13 13:09:06;;;;;;;3.33;1.20;;;13.00;99.90;;;;;;4975113;28;20168;-76
2021/10/13 13:11:32;;;;;;;4.33;1.53;;;13.00;99.90;;;;;;4975013;28;20430;-76
2021/10/13 13:13:57;;;;;;;2.13;1.40;;;13.00;99.90;;;;;;4975338;28;20421;-76
2021/10/13 13:16:26;;;;;;;2.73;1.37;;;12.80;99.90;;;;;;4975493;28;20176;-77
2021/10/13 13:18:52;;;;;;;1.23;1.10;;;12.60;99.90;;;;;;4975369;28;20176;-77
2021/10/13 13:21:18;;;;;;;1.03;0.93;;;12.40;99.90;;;;;;4975001;28;20522;-76
2021/10/13 13:23:43;;;;;;;1.20;0.80;;;12.40;99.90;;;;;;4975097;28;20515;-77
2021/10/13 13:26:09;;;;;;;3.07;1.20;;;12.50;99.90;;;;;;4989866;28;20684;-76
2021/10/13 13:28:36;;;;;;;3.10;1.40;;;12.50;99.90;;;;;;4974829;28;20204;-76
2021/10/13 13:31:01;;;;;;;2.27;1.40;;;12.60;99.90;;;;;;4989856;28;20290;-76
2021/10/13 13:33:27;;;;;;;2.43;1.90;;;12.50;99.90;;;;;;4974838;28;20471;-76
2021/10/13 13:35:52;;;;;;;3.43;1.67;;;12.50;99.90;;;;;;4974776;28;20191;-76
2021/10/13 13:38:18;;;;;;;2.27;1.90;;;12.60;99.90;;;;;;4974835;28;20333;-76
2021/10/13 13:40:43;;;;;;;2.23;1.67;;;12.60;99.90;;;;;;4974612;28;20194;-76
2021/10/13 13:43:09;;;;;;;3.87;1.90;;;12.50;99.90;;;;;;4974791;28;20179;-76
2021/10/13 13:45:34;;;;;;;3.83;2.07;;;12.50;99.90;;;;;;4974584;28;20184;-77
2021/10/13 13:48:00;;;;;;;2.80;2.60;;;12.60;99.90;;;;;;4974518;28;20645;-76
2021/10/13 13:50:28;;;;;;;8.87;2.53;;;12.60;99.90;;;;;;4974370;28;20545;-76
2021/10/13 13:52:54;;;;;;;1.90;1.80;;;12.60;99.90;;;;;;4974575;28;20188;-76
2021/10/13 13:55:20;;;;;;;4.50;2.40;;;12.50;99.90;;;;;;4974595;28;20419;-76
2021/10/13 13:57:45;;;;;;;2.63;1.53;;;12.50;99.90;;;;;;4974375;28;20184;-77
2021/10/13 14:00:11;;;;;;;1.33;1.20;;;12.60;99.90;;;;;;4989261;28;20924;-76
2021/10/13 14:02:36;;;;;;;3.57;1.17;;;12.40;99.90;;;;;;4974213;28;20251;-78
2021/10/13 14:05:02;;;;;;;2.10;1.13;;;12.30;99.90;;;;;;4974688;28;20426;-76
2021/10/13 14:07:30;;;;;;;1.67;1.27;;;12.30;99.90;;;;;;4973949;28;20560;-75
2021/10/13 14:09:56;;;;;;;2.03;1.87;;;12.20;99.90;;;;;;4974255;28;20416;-76
2021/10/13 14:12:21;;;;;;;3.40;1.23;;;11.90;99.90;;;;;;4973869;28;20910;-76
2021/10/13 14:14:47;;;;;;;1.97;1.40;;;11.80;99.90;;;;;;4974393;28;20608;-76
2021/10/13 14:17:12;;;;;;;1.57;1.47;;;11.60;99.90;;;;;;4973226;28;20592;-76
2021/10/13 14:19:40;;;;;;;2.30;1.50;;;11.40;99.90;;;;;;4973787;28;20186;-76
2021/10/13 14:22:06;;;;;;;5.07;1.90;;;11.30;99.90;;;;;;4973915;28;20630;-76
2021/10/13 14:24:32;;;;;;;1.37;1.30;;;11.10;99.90;;;;;;4973939;28;20430;-76
2021/10/13 14:26:59;;;;;;;4.30;1.70;;;11.10;99.90;;;;;;4973704;28;20988;-76
2021/10/13 14:29:28;;;;;;;5.03;2.10;;;11.00;99.90;;;;;;4973695;28;20185;-76
2021/10/13 14:31:54;;;;;;;2.90;2.03;;;10.90;99.90;;;;;;4988620;28;20524;-76
2021/10/13 14:34:22;;;;;;;3.53;2.40;;;10.90;99.90;;;;;;4973763;28;20419;-75
2021/10/13 14:36:48;;;;;;;2.33;2.10;;;10.80;99.90;;;;;;4973651;28;20204;-76
2021/10/13 14:39:15;;;;;;;3.33;2.23;;;10.70;99.90;;;;;;4973349;28;20418;-76
2021/10/13 14:41:40;;;;;;;2.53;2.27;;;10.60;99.90;;;;;;4988143;28;20448;-76
2021/10/13 14:44:06;;;;;;;2.10;2.00;;;10.60;99.90;;;;;;4973929;28;20465;-76
2021/10/13 14:46:31;;;;;;;2.50;2.30;;;10.60;99.90;;;;;;4973511;28;20679;-76
2021/10/13 14:48:57;;;;;;;4.90;3.03;;;10.50;99.90;;;;;;4973578;28;20170;-76
2021/10/13 14:51:23;;;;;;;5.97;5.13;;;10.50;99.90;;;;;;4973415;28;20198;-75
2021/10/13 14:53:48;;;;;;;4.93;3.53;;;10.40;99.90;;;;;;4973379;28;20179;-76
2021/10/13 14:56:14;;;;;;;6.50;2.90;;;10.40;99.90;;;;;;4973550;28;20882;-76
2021/10/13 14:58:40;;;;;;;7.60;2.97;;;10.50;99.90;;;;;;4973348;28;20182;-75
2021/10/13 15:01:06;;;;;;;3.53;2.50;;;10.50;99.90;;;;;;4973570;28;20438;-75
2021/10/13 15:03:33;;;;;;;5.20;2.83;;;10.60;99.90;;;;;;4973239;28;20480;-76
2021/10/13 15:05:59;;;;;;;2.10;2.00;;;10.60;99.90;;;;;;4973275;28;20203;-76
2021/10/13 15:08:24;;;;;;;4.87;2.93;;;10.60;99.90;;;;;;4972665;28;20508;-76
2021/10/13 15:10:50;;;;;;;3.17;2.70;;;10.60;99.90;;;;;;4972983;28;20832;-76
2021/10/13 15:13:15;;;;;;;3.40;2.40;;;10.60;99.90;;;;;;4973033;28;20319;-76
2021/10/13 15:15:41;;;;;;;2.40;2.20;;;10.50;99.90;;;;;;4973046;28;20179;-75
2021/10/13 15:18:06;;;;;;;5.00;1.90;;;10.40;99.90;;;;;;4973176;28;20537;-76
2021/10/13 15:20:32;;;;;;;2.20;2.07;;;10.40;99.90;;;;;;4972748;28;20183;-76
2021/10/13 15:22:59;;;;;;;3.13;2.40;;;10.30;99.90;;;;;;4972808;28;20175;-76
2021/10/13 15:25:25;;;;;;;5.60;2.60;;;10.10;99.90;;;;;;4972759;28;20174;-76
2021/10/13 15:27:51;;;;;;;4.03;2.40;;;10.00;99.90;;;;;;4972760;28;20819;-77
2021/10/13 15:30:16;;;;;;;3.43;3.13;;;9.90;99.90;;;;;;4972920;28;20450;-76
2021/10/13 15:32:42;;;;;;;2.27;2.10;;;9.90;99.90;;;;;;4971846;28;20226;-76
2021/10/13 15:35:09;;;;;;;6.63;2.57;;;9.90;99.90;;;;;;4973074;28;20189;-77
2021/10/13 15:37:35;;;;;;;4.90;2.80;;;9.90;99.90;;;;;;4972191;28;20245;-76
2021/10/13 15:40:01;;;;;;;2.03;1.93;;;10.00;99.90;;;;;;4972420;28;20424;-76
2021/10/13 15:42:27;;;;;;;5.97;2.60;;;10.10;99.90;;;;;;4972394;28;20443;-76
2021/10/13 15:44:52;;;;;;;2.20;1.97;;;10.20;99.90;;;;;;4972941;28;20210;-76
2021/10/13 15:47:18;;;;;;;3.70;2.10;;;10.40;99.90;;;;;;4972167;28;20202;-76
2021/10/13 15:49:43;;;;;;;3.50;2.13;;;10.50;99.90;;;;;;4972407;28;20185;-76
2021/10/13 15:52:10;;;;;;;2.27;2.07;;;10.50;99.90;;;;;;4972794;28;20238;-76
2021/10/13 15:54:35;;;;;;;4.63;2.33;;;10.60;99.90;;;;;;4972672;28;20195;-76
2021/10/13 15:57:02;;;;;;;2.50;1.70;;;10.50;99.90;;;;;;4972714;28;20464;-76
2021/10/13 15:59:28;;;;;;;6.40;1.53;;;10.40;99.90;;;;;;4972373;28;20267;-76
2021/10/13 16:01:53;;;;;;;2.07;1.87;;;10.40;99.90;;;;;;4972566;28;20529;-76
2021/10/13 16:04:19;;;;;;;1.90;1.80;;;10.40;99.90;;;;;;4972662;28;20183;-76
2021/10/13 16:06:44;;;;;;;4.80;2.13;;;10.40;99.90;;;;;;4972491;28;20211;-76
2021/10/13 16:09:10;;;;;;;1.50;1.40;;;10.30;99.90;;;;;;4972599;28;20181;-76
2021/10/13 16:11:35;;;;;;;2.07;1.97;;;10.30;99.90;;;;;;4971173;28;20201;-76
2021/10/13 16:14:01;;;;;;;2.60;2.00;;;10.30;99.90;;;;;;4972634;28;20184;-76
2021/10/13 16:16:26;;;;;;;4.50;2.23;;;10.30;99.90;;;;;;4972242;28;20197;-76
2021/10/13 16:18:52;;;;;;;2.40;2.17;;;10.20;99.90;;;;;;4972466;28;20185;-77
2021/10/13 16:21:18;;;;;;;4.90;1.93;;;10.20;99.90;;;;;;4972368;28;20277;-76
2021/10/13 16:23:45;;;;;;;2.00;1.90;;;10.20;99.90;;;;;;4972330;28;20697;-76
2021/10/13 16:26:12;;;;;;;2.03;1.80;;;10.10;99.90;;;;;;4972288;28;20226;-76
2021/10/13 16:28:38;;;;;;;2.13;1.63;;;10.00;99.90;;;;;;4972350;28;20919;-76
2021/10/13 16:31:04;;;;;;;2.90;1.57;;;9.90;99.90;;;;;;4974771;28;20468;-77
2021/10/13 16:33:29;;;;;;;18.43;10.20;;;9.80;99.90;;;;;;4973235;28;20430;-76
2021/10/13 16:35:55;;;;;;;7.30;5.97;;;9.70;99.90;;;;;;4972520;28;20186;-76
2021/10/13 16:38:20;;;;;;;3.70;2.10;;;9.50;99.90;;;;;;4972112;28;20715;-76
2021/10/13 16:40:46;;;;;;;5.30;1.80;;;9.50;99.90;;;;;;4975238;28;20192;-75
2021/10/13 16:43:12;;;;;;;1.93;1.83;;;9.40;99.90;;;;;;4976199;28;20676;-75
2021/10/13 16:45:37;;;;;;;1.83;1.60;;;9.30;99.90;;;;;;4974767;28;20183;-76
2021/10/13 16:48:03;;;;;;;3.40;2.30;;;9.20;99.90;;;;;;4975750;28;20202;-76
2021/10/13 16:50:29;;;;;;;3.70;2.23;;;9.10;99.90;;;;;;4973827;28;20179;-76
2021/10/13 16:52:58;;;;;;;5.73;3.07;;;9.10;99.90;;;;;;4979345;28;20450;-76
2021/10/13 16:55:24;;;;;;;6.00;3.70;;;9.00;99.90;;;;;;4978201;28;20261;-77
2021/10/13 16:57:50;;;;;;;6.03;3.53;;;8.90;99.90;;;;;;4973267;28;20418;-75
2021/10/13 17:00:16;;;;;;;4.33;3.00;;;8.90;99.90;;;;;;4975407;28;20799;-76
2021/10/13 17:02:42;;;;;;;7.07;6.17;;;8.80;99.90;;;;;;4977149;28;20217;-79
2021/10/13 17:05:07;;;;;;;5.23;4.27;;;8.80;99.90;;;;;;4979615;28;20182;-75
2021/10/13 17:07:34;;;;;;;11.23;6.53;;;8.70;99.90;;;;;;4975262;28;20201;-75
2021/10/13 17:10:01;;;;;;;16.97;10.23;;;8.60;99.90;;;;;;4975374;28;20168;-75
2021/10/13 17:12:26;;;;;;;11.57;8.93;;;8.60;99.90;;;;;;4974714;28;20488;-75
2021/10/13 17:14:52;;;;;;;16.37;9.00;;;8.50;99.90;;;;;;4975472;28;20425;-75